createdAt,value
2023-11-29T00:00:49.770Z,39.44
2023-11-29T00:05:45.796Z,39.50
2023-11-29T00:10:38.246Z,39.75
2023-11-29T00:15:29.994Z,39.61
2023-11-29T00:20:21.827Z,39.88
2023-11-29T00:25:13.912Z,39.63
2023-11-29T00:30:06.146Z,39.62
2023-11-29T00:34:58.073Z,39.58
2023-11-29T00:39:49.840Z,39.78
2023-11-29T00:44:41.655Z,39.53
2023-11-29T00:49:33.472Z,39.45
2023-11-29T00:54:25.254Z,39.72
2023-11-29T00:59:17.014Z,39.39
2023-11-29T01:04:08.792Z,39.51
2023-11-29T01:09:00.648Z,39.45
2023-11-29T01:13:52.925Z,39.33
2023-11-29T01:18:45.440Z,39.49
2023-11-29T01:23:37.366Z,38.66
2023-11-29T01:28:29.117Z,38.63
2023-11-29T01:33:20.908Z,38.57
2023-11-29T01:38:12.785Z,38.96
2023-11-29T01:43:04.875Z,39.16
2023-11-29T01:47:57.302Z,38.95
2023-11-29T01:52:49.433Z,39.38
2023-11-29T01:57:43.114Z,39.36
2023-11-29T02:02:35.157Z,38.93
2023-11-29T02:07:27.782Z,37.92
2023-11-29T02:12:21.902Z,37.68
2023-11-29T02:17:13.651Z,37.84
2023-11-29T02:22:05.650Z,37.50
2023-11-29T02:26:57.369Z,37.50
2023-11-29T02:31:49.107Z,37.47
2023-11-29T02:36:40.952Z,37.49
2023-11-29T02:41:36.425Z,37.60
2023-11-29T02:46:28.175Z,37.55
2023-11-29T02:51:19.940Z,37.64
2023-11-29T02:56:11.875Z,37.43
2023-11-29T03:01:04.069Z,37.36
2023-11-29T03:05:56.129Z,36.54
2023-11-29T03:10:48.813Z,35.89
2023-11-29T03:15:40.597Z,35.04
2023-11-29T03:20:32.394Z,35.29
2023-11-29T03:25:24.086Z,35.49
2023-11-29T03:30:16.023Z,35.52
2023-11-29T03:35:08.217Z,35.36
2023-11-29T03:39:59.967Z,35.86
2023-11-29T03:44:51.844Z,35.79
2023-11-29T03:49:43.626Z,35.39
2023-11-29T03:54:35.336Z,33.03
2023-11-29T03:59:27.041Z,32.11
2023-11-29T04:04:18.989Z,31.43
2023-11-29T04:09:10.935Z,30.89
2023-11-29T04:14:02.759Z,30.61
2023-11-29T04:18:55.341Z,30.13
2023-11-29T04:23:47.115Z,30.29
2023-11-29T04:28:38.931Z,30.59
2023-11-29T04:33:30.972Z,31.49
2023-11-29T04:38:23.228Z,32.42
2023-11-29T04:43:14.935Z,32.67
2023-11-29T04:48:07.203Z,33.13
2023-11-29T04:52:59.085Z,33.62
2023-11-29T04:57:50.745Z,33.95
2023-11-29T05:02:42.573Z,34.20
2023-11-29T05:07:34.315Z,34.36
2023-11-29T05:12:26.254Z,34.60
2023-11-29T05:17:18.040Z,34.83
2023-11-29T05:22:09.786Z,34.94
2023-11-29T05:27:01.532Z,35.00
2023-11-29T05:31:53.269Z,35.06
2023-11-29T05:36:45.039Z,35.08
2023-11-29T05:41:36.782Z,34.94
2023-11-29T05:46:29.888Z,35.06
2023-11-29T05:51:21.709Z,34.96
2023-11-29T05:56:13.379Z,34.92
2023-11-29T06:01:08.566Z,35.00
2023-11-29T06:06:00.476Z,34.96
2023-11-29T06:10:52.338Z,35.00
2023-11-29T06:15:44.610Z,34.89
2023-11-29T06:20:36.386Z,34.18
2023-11-29T06:25:28.433Z,32.78
2023-11-29T06:30:21.339Z,33.34
2023-11-29T06:35:13.916Z,33.61
2023-11-29T06:40:12.057Z,33.59
2023-11-29T06:45:04.255Z,33.69
2023-11-29T06:49:55.916Z,33.58
2023-11-29T06:54:47.639Z,33.59
2023-11-29T06:59:39.369Z,34.26
2023-11-29T07:04:31.069Z,34.28
2023-11-29T07:09:23.287Z,34.43
2023-11-29T07:14:15.058Z,34.28
2023-11-29T07:19:07.404Z,34.43
2023-11-29T07:24:01.262Z,34.57
2023-11-29T07:28:54.284Z,34.43
2023-11-29T07:33:46.170Z,34.37
2023-11-29T07:38:38.040Z,34.27
2023-11-29T07:43:29.916Z,34.75
2023-11-29T07:48:26.141Z,34.58
2023-11-29T07:53:18.029Z,30.75
2023-11-29T07:58:09.992Z,31.44
2023-11-29T08:03:01.908Z,32.57
2023-11-29T08:07:53.624Z,32.32
2023-11-29T08:12:45.389Z,31.92
2023-11-29T08:17:37.460Z,31.79
2023-11-29T08:22:29.304Z,31.79
2023-11-29T08:27:22.383Z,31.93
2023-11-29T08:32:15.346Z,32.21
2023-11-29T08:37:07.081Z,31.99
2023-11-29T08:41:58.928Z,32.03
2023-11-29T08:46:50.765Z,31.96
2023-11-29T08:51:45.822Z,32.07
2023-11-29T08:56:38.297Z,31.32
2023-11-29T09:01:32.745Z,31.83
2023-11-29T09:06:24.912Z,32.04
2023-11-29T09:11:17.181Z,32.33
2023-11-29T09:16:09.644Z,32.55
2023-11-29T09:21:04.205Z,32.78
2023-11-29T09:25:56.164Z,32.47
2023-11-29T09:30:47.852Z,32.75
2023-11-29T09:35:39.720Z,32.86
2023-11-29T09:40:31.897Z,32.70
2023-11-29T09:45:26.635Z,33.29
2023-11-29T09:50:19.113Z,33.14
2023-11-29T09:55:12.195Z,33.19
2023-11-29T10:00:07.407Z,33.30
2023-11-29T10:05:01.335Z,33.53
2023-11-29T10:09:54.235Z,33.27
2023-11-29T10:14:46.419Z,33.23
2023-11-29T10:19:39.228Z,32.40
2023-11-29T10:24:32.001Z,32.61
2023-11-29T10:29:23.940Z,32.54
2023-11-29T10:34:17.017Z,32.89
2023-11-29T10:39:22.429Z,32.62
2023-11-29T10:44:15.776Z,32.66
2023-11-29T10:49:16.463Z,32.60
2023-11-29T10:54:09.561Z,32.19
2023-11-29T10:59:18.931Z,32.16
2023-11-29T11:04:12.104Z,31.46
2023-11-29T11:09:05.518Z,32.13
2023-11-29T11:13:57.983Z,30.75
2023-11-29T11:18:49.732Z,30.28
2023-11-29T11:23:41.746Z,30.05
2023-11-29T11:28:38.956Z,29.72
2023-11-29T11:33:52.954Z,28.99
2023-11-29T11:38:45.186Z,29.14
2023-11-29T11:43:37.075Z,29.06
2023-11-29T11:48:28.968Z,28.76
2023-11-29T11:53:20.739Z,29.33
2023-11-29T11:58:14.735Z,30.03
2023-11-29T12:03:06.830Z,30.05
2023-11-29T12:07:59.174Z,30.27
2023-11-29T12:12:51.474Z,30.50
2023-11-29T12:17:44.311Z,30.39
2023-11-29T12:22:41.757Z,30.63
2023-11-29T12:27:33.750Z,30.66
2023-11-29T12:32:32.293Z,30.60
2023-11-29T12:37:28.200Z,30.54
2023-11-29T12:42:21.598Z,30.74
2023-11-29T12:47:13.392Z,31.20
2023-11-29T12:52:05.401Z,31.11
2023-11-29T12:56:57.860Z,30.66
2023-11-29T13:01:50.475Z,30.91
2023-11-29T13:06:43.516Z,31.31
2023-11-29T13:11:35.370Z,31.65
2023-11-29T13:16:27.245Z,31.80
2023-11-29T13:21:19.044Z,32.03
2023-11-29T13:26:10.821Z,32.14
2023-11-29T13:31:03.380Z,32.42
2023-11-29T13:35:55.333Z,32.73
2023-11-29T13:40:47.373Z,33.20
2023-11-29T13:45:39.324Z,32.77
2023-11-29T13:50:31.069Z,33.44
2023-11-29T13:55:22.979Z,33.93
2023-11-29T14:00:15.204Z,33.48
2023-11-29T14:05:07.272Z,33.83
2023-11-29T14:09:59.092Z,33.94
2023-11-29T14:14:53.266Z,34.21
2023-11-29T14:19:45.126Z,34.14
2023-11-29T14:24:37.204Z,34.29
2023-11-29T14:29:29.071Z,34.47
2023-11-29T14:34:25.717Z,33.99
2023-11-29T14:39:17.819Z,34.49
2023-11-29T14:44:09.592Z,34.30
2023-11-29T14:49:02.091Z,34.57
2023-11-29T14:53:54.554Z,34.30
2023-11-29T14:58:46.672Z,34.44
2023-11-29T15:03:39.040Z,34.59
2023-11-29T15:08:30.890Z,33.77
2023-11-29T15:13:22.887Z,33.89
2023-11-29T15:18:14.712Z,34.51
2023-11-29T15:23:06.528Z,34.41
2023-11-29T15:27:58.339Z,33.90
2023-11-29T15:32:51.766Z,32.75
2023-11-29T15:37:45.310Z,32.64
2023-11-29T15:42:37.049Z,32.36
2023-11-29T15:47:28.810Z,31.76
2023-11-29T15:52:20.750Z,31.65
2023-11-29T15:57:12.553Z,31.63
2023-11-29T16:02:04.752Z,31.52
2023-11-29T16:06:56.559Z,31.18
2023-11-29T16:11:48.562Z,31.06
2023-11-29T16:16:40.634Z,31.13
2023-11-29T16:21:32.489Z,31.18
2023-11-29T16:26:24.168Z,31.07
2023-11-29T16:31:16.113Z,30.92
2023-11-29T16:36:08.432Z,31.36
2023-11-29T16:41:00.491Z,31.67
2023-11-29T16:45:52.809Z,32.06
2023-11-29T16:50:44.609Z,32.34
2023-11-29T16:55:36.802Z,32.59
2023-11-29T17:00:29.663Z,32.86
2023-11-29T17:05:21.599Z,33.06
2023-11-29T17:10:13.772Z,33.17
2023-11-29T17:15:09.865Z,33.43
2023-11-29T17:20:02.336Z,33.69
2023-11-29T17:24:54.934Z,33.70
2023-11-29T17:29:46.844Z,33.94
2023-11-29T17:34:38.584Z,34.01
2023-11-29T17:39:30.551Z,34.16
2023-11-29T17:44:24.083Z,34.06
2023-11-29T17:49:16.062Z,34.64
2023-11-29T17:54:07.939Z,34.60
2023-11-29T17:58:59.833Z,34.59
2023-11-29T18:03:51.596Z,34.72
2023-11-29T18:08:43.456Z,34.82
2023-11-29T18:13:35.176Z,34.84
2023-11-29T18:18:28.378Z,34.86
2023-11-29T18:23:20.896Z,34.95
2023-11-29T18:28:12.698Z,34.98
2023-11-29T18:33:04.536Z,35.11
2023-11-29T18:37:56.274Z,35.16
2023-11-29T18:42:47.982Z,35.23
2023-11-29T18:47:40.541Z,35.24
2023-11-29T18:52:33.210Z,35.29
2023-11-29T18:57:24.927Z,35.70
2023-11-29T19:02:16.785Z,35.40
2023-11-29T19:07:08.504Z,35.48
2023-11-29T19:12:02.302Z,35.12
2023-11-29T19:16:54.267Z,35.02
2023-11-29T19:21:45.977Z,34.43
2023-11-29T19:26:37.668Z,34.26
2023-11-29T19:31:29.521Z,34.40
2023-11-29T19:36:22.166Z,34.32
2023-11-29T19:41:13.927Z,34.22
2023-11-29T19:46:09.262Z,34.30
2023-11-29T19:51:01.605Z,33.94
2023-11-29T19:55:53.408Z,33.79
2023-11-29T20:00:45.761Z,33.85
2023-11-29T20:05:37.621Z,33.58
2023-11-29T20:10:30.511Z,33.60
2023-11-29T20:15:23.439Z,33.36
2023-11-29T20:20:18.593Z,33.42
2023-11-29T20:25:15.698Z,33.26
2023-11-29T20:30:08.182Z,33.87
2023-11-29T20:35:17.026Z,33.83
2023-11-29T20:40:13.537Z,34.12
2023-11-29T20:45:07.797Z,34.25
2023-11-29T20:49:59.784Z,34.32
2023-11-29T20:54:51.659Z,34.41
2023-11-29T20:59:46.255Z,34.44
2023-11-29T21:04:38.046Z,35.01
2023-11-29T21:09:29.965Z,35.28
2023-11-29T21:14:21.663Z,35.16
2023-11-29T21:19:13.596Z,35.60
2023-11-29T21:24:05.938Z,35.33
2023-11-29T21:28:57.717Z,36.18
2023-11-29T21:33:49.445Z,36.10
2023-11-29T21:38:41.310Z,36.39
2023-11-29T21:43:33.040Z,36.66
2023-11-29T21:48:25.066Z,36.56
2023-11-29T21:53:16.972Z,36.97
2023-11-29T21:58:08.800Z,37.13
2023-11-29T22:03:00.540Z,37.33
2023-11-29T22:07:54.795Z,37.55
2023-11-29T22:12:46.544Z,37.74
2023-11-29T22:17:38.447Z,37.87
2023-11-29T22:22:30.173Z,37.94
2023-11-29T22:27:22.091Z,38.24
2023-11-29T22:32:13.889Z,38.37
2023-11-29T22:37:05.637Z,38.19
2023-11-29T22:41:57.640Z,38.71
2023-11-29T22:46:49.617Z,38.78
2023-11-29T22:51:41.346Z,39.57
2023-11-29T22:56:38.100Z,39.29
2023-11-29T23:01:32.464Z,39.52
2023-11-29T23:06:24.962Z,39.60
2023-11-29T23:11:16.877Z,39.86
2023-11-29T23:16:09.517Z,39.95
2023-11-29T23:21:01.434Z,39.92
2023-11-29T23:25:53.335Z,40.27
2023-11-29T23:30:45.147Z,40.18
2023-11-29T23:35:36.983Z,40.62
2023-11-29T23:40:28.818Z,40.50
2023-11-29T23:45:20.608Z,40.47
2023-11-29T23:50:12.312Z,40.65
2023-11-29T23:55:04.205Z,40.56
2023-11-29T23:59:55.998Z,40.57
